sensor_id;sensor_type;location;lat;lon;timestamp;P1;durP1;ratioP1;P2;durP2;ratioP2
32082;SDS011;18597;48.328;7.932;2023-03-01T00:02:08;29.07;;;17.40;;
32082;SDS011;18597;48.328;7.932;2023-03-01T00:04:34;30.37;;;17.13;;
32082;SDS011;18597;48.328;7.932;2023-03-01T00:07:00;27.53;;;16.63;;
32082;SDS011;18597;48.328;7.932;2023-03-01T00:09:26;24.90;;;16.50;;
32082;SDS011;18597;48.328;7.932;2023-03-01T00:11:52;31.23;;;17.30;;
32082;SDS011;18597;48.328;7.932;2023-03-01T00:14:18;26.40;;;16.00;;
32082;SDS011;18597;48.328;7.932;2023-03-01T00:16:44;24.93;;;15.50;;
32082;SDS011;18597;48.328;7.932;2023-03-01T00:19:12;28.02;;;17.27;;
32082;SDS011;18597;48.328;7.932;2023-03-01T00:21:41;29.87;;;17.63;;
32082;SDS011;18597;48.328;7.932;2023-03-01T00:24:07;27.52;;;16.23;;
32082;SDS011;18597;48.328;7.932;2023-03-01T00:26:33;29.85;;;17.65;;
32082;SDS011;18597;48.328;7.932;2023-03-01T00:28:59;30.23;;;15.80;;
32082;SDS011;18597;48.328;7.932;2023-03-01T00:31:27;26.77;;;16.17;;
32082;SDS011;18597;48.328;7.932;2023-03-01T00:33:56;24.73;;;15.83;;
32082;SDS011;18597;48.328;7.932;2023-03-01T00:36:27;25.52;;;15.80;;
32082;SDS011;18597;48.328;7.932;2023-03-01T00:38:57;28.35;;;15.48;;
32082;SDS011;18597;48.328;7.932;2023-03-01T00:41:23;28.63;;;16.03;;
32082;SDS011;18597;48.328;7.932;2023-03-01T00:43:51;27.95;;;18.05;;
32082;SDS011;18597;48.328;7.932;2023-03-01T00:46:19;24.92;;;15.02;;
32082;SDS011;18597;48.328;7.932;2023-03-01T00:48:49;25.65;;;16.90;;
32082;SDS011;18597;48.328;7.932;2023-03-01T00:51:17;32.23;;;17.10;;
32082;SDS011;18597;48.328;7.932;2023-03-01T00:53:47;35.53;;;21.48;;
32082;SDS011;18597;48.328;7.932;2023-03-01T00:56:16;30.77;;;20.10;;
32082;SDS011;18597;48.328;7.932;2023-03-01T00:58:42;29.10;;;17.23;;
32082;SDS011;18597;48.328;7.932;2023-03-01T01:01:13;22.70;;;14.53;;
32082;SDS011;18597;48.328;7.932;2023-03-01T01:03:48;31.88;;;19.15;;
32082;SDS011;18597;48.328;7.932;2023-03-01T01:06:27;22.05;;;15.10;;
32082;SDS011;18597;48.328;7.932;2023-03-01T01:08:58;28.52;;;16.95;;
32082;SDS011;18597;48.328;7.932;2023-03-01T01:11:25;29.77;;;16.10;;
32082;SDS011;18597;48.328;7.932;2023-03-01T01:13:52;30.90;;;16.20;;
32082;SDS011;18597;48.328;7.932;2023-03-01T01:16:19;32.75;;;17.33;;
32082;SDS011;18597;48.328;7.932;2023-03-01T01:18:48;28.83;;;16.23;;
32082;SDS011;18597;48.328;7.932;2023-03-01T01:21:15;22.17;;;15.60;;
32082;SDS011;18597;48.328;7.932;2023-03-01T01:23:44;25.92;;;16.77;;
32082;SDS011;18597;48.328;7.932;2023-03-01T01:26:12;25.42;;;16.08;;
32082;SDS011;18597;48.328;7.932;2023-03-01T01:28:41;23.02;;;14.82;;
32082;SDS011;18597;48.328;7.932;2023-03-01T01:31:07;24.08;;;15.27;;
32082;SDS011;18597;48.328;7.932;2023-03-01T01:33:33;19.07;;;13.40;;
32082;SDS011;18597;48.328;7.932;2023-03-01T01:35:59;26.92;;;13.25;;
32082;SDS011;18597;48.328;7.932;2023-03-01T01:38:25;34.43;;;15.97;;
32082;SDS011;18597;48.328;7.932;2023-03-01T01:40:51;20.10;;;13.13;;
32082;SDS011;18597;48.328;7.932;2023-03-01T01:43:20;21.85;;;14.27;;
32082;SDS011;18597;48.328;7.932;2023-03-01T01:45:59;26.92;;;14.13;;
32082;SDS011;18597;48.328;7.932;2023-03-01T01:48:36;23.80;;;14.27;;
32082;SDS011;18597;48.328;7.932;2023-03-01T01:51:09;28.30;;;13.95;;
32082;SDS011;18597;48.328;7.932;2023-03-01T01:53:40;25.10;;;14.93;;
32082;SDS011;18597;48.328;7.932;2023-03-01T01:56:08;25.50;;;14.15;;
32082;SDS011;18597;48.328;7.932;2023-03-01T01:58:39;23.42;;;14.88;;
32082;SDS011;18597;48.328;7.932;2023-03-01T02:01:07;27.48;;;13.73;;
32082;SDS011;18597;48.328;7.932;2023-03-01T02:03:33;27.25;;;15.77;;
32082;SDS011;18597;48.328;7.932;2023-03-01T02:08:44;23.25;;;13.60;;
32082;SDS011;18597;48.328;7.932;2023-03-01T02:11:12;20.00;;;13.90;;
32082;SDS011;18597;48.328;7.932;2023-03-01T02:13:40;21.20;;;13.18;;
32082;SDS011;18597;48.328;7.932;2023-03-01T02:16:08;20.42;;;13.13;;
32082;SDS011;18597;48.328;7.932;2023-03-01T02:18:38;25.45;;;14.25;;
32082;SDS011;18597;48.328;7.932;2023-03-01T02:24:01;25.42;;;14.55;;
32082;SDS011;18597;48.328;7.932;2023-03-01T02:26:41;21.60;;;12.60;;
32082;SDS011;18597;48.328;7.932;2023-03-01T02:29:13;22.90;;;13.90;;
32082;SDS011;18597;48.328;7.932;2023-03-01T02:31:39;24.70;;;13.03;;
32082;SDS011;18597;48.328;7.932;2023-03-01T02:34:09;25.08;;;13.60;;
32082;SDS011;18597;48.328;7.932;2023-03-01T02:36:44;28.35;;;14.63;;
32082;SDS011;18597;48.328;7.932;2023-03-01T02:39:17;25.20;;;13.55;;
32082;SDS011;18597;48.328;7.932;2023-03-01T02:41:50;24.23;;;13.43;;
32082;SDS011;18597;48.328;7.932;2023-03-01T02:44:19;24.15;;;13.75;;
32082;SDS011;18597;48.328;7.932;2023-03-01T02:46:47;20.05;;;12.50;;
32082;SDS011;18597;48.328;7.932;2023-03-01T02:49:21;20.13;;;13.35;;
32082;SDS011;18597;48.328;7.932;2023-03-01T02:55:06;21.65;;;13.38;;
32082;SDS011;18597;48.328;7.932;2023-03-01T02:57:38;22.08;;;13.15;;
32082;SDS011;18597;48.328;7.932;2023-03-01T03:00:09;19.90;;;13.45;;
32082;SDS011;18597;48.328;7.932;2023-03-01T03:02:48;23.77;;;13.70;;
32082;SDS011;18597;48.328;7.932;2023-03-01T03:05:18;36.50;;;12.95;;
32082;SDS011;18597;48.328;7.932;2023-03-01T03:07:47;23.73;;;13.63;;
32082;SDS011;18597;48.328;7.932;2023-03-01T03:10:16;25.83;;;14.65;;
32082;SDS011;18597;48.328;7.932;2023-03-01T03:12:50;29.65;;;14.57;;
32082;SDS011;18597;48.328;7.932;2023-03-01T03:15:21;18.85;;;13.52;;
32082;SDS011;18597;48.328;7.932;2023-03-01T03:17:48;20.27;;;13.43;;
32082;SDS011;18597;48.328;7.932;2023-03-01T03:20:16;30.35;;;14.80;;
32082;SDS011;18597;48.328;7.932;2023-03-01T03:20:17;30.35;;;14.80;;
32082;SDS011;18597;48.328;7.932;2023-03-01T03:22:46;29.42;;;15.00;;
32082;SDS011;18597;48.328;7.932;2023-03-01T03:25:14;24.10;;;12.80;;
32082;SDS011;18597;48.328;7.932;2023-03-01T03:27:43;25.77;;;14.68;;
32082;SDS011;18597;48.328;7.932;2023-03-01T03:30:13;27.13;;;14.50;;
32082;SDS011;18597;48.328;7.932;2023-03-01T03:32:44;20.60;;;13.18;;
32082;SDS011;18597;48.328;7.932;2023-03-01T03:35:17;26.42;;;13.85;;
32082;SDS011;18597;48.328;7.932;2023-03-01T03:37:46;37.35;;;20.13;;
32082;SDS011;18597;48.328;7.932;2023-03-01T03:40:29;37.30;;;20.58;;
32082;SDS011;18597;48.328;7.932;2023-03-01T03:43:00;35.10;;;18.38;;
32082;SDS011;18597;48.328;7.932;2023-03-01T03:45:27;40.60;;;23.45;;
32082;SDS011;18597;48.328;7.932;2023-03-01T03:47:53;33.17;;;18.70;;
32082;SDS011;18597;48.328;7.932;2023-03-01T03:50:19;39.20;;;19.60;;
32082;SDS011;18597;48.328;7.932;2023-03-01T03:52:45;29.97;;;14.70;;
32082;SDS011;18597;48.328;7.932;2023-03-01T03:55:11;24.38;;;16.60;;
32082;SDS011;18597;48.328;7.932;2023-03-01T03:57:38;24.17;;;14.48;;
32082;SDS011;18597;48.328;7.932;2023-03-01T04:00:09;25.08;;;14.10;;
32082;SDS011;18597;48.328;7.932;2023-03-01T04:02:38;22.15;;;15.35;;
32082;SDS011;18597;48.328;7.932;2023-03-01T04:05:06;31.63;;;18.90;;
32082;SDS011;18597;48.328;7.932;2023-03-01T04:07:34;30.77;;;16.88;;
32082;SDS011;18597;48.328;7.932;2023-03-01T04:10:03;25.92;;;15.95;;
32082;SDS011;18597;48.328;7.932;2023-03-01T04:12:32;23.15;;;14.45;;
32082;SDS011;18597;48.328;7.932;2023-03-01T04:15:00;23.63;;;14.63;;
32082;SDS011;18597;48.328;7.932;2023-03-01T04:17:37;20.50;;;13.65;;
32082;SDS011;18597;48.328;7.932;2023-03-01T04:20:06;27.95;;;16.30;;
32082;SDS011;18597;48.328;7.932;2023-03-01T04:22:36;24.08;;;13.60;;
32082;SDS011;18597;48.328;7.932;2023-03-01T04:25:04;24.15;;;13.90;;
32082;SDS011;18597;48.328;7.932;2023-03-01T04:27:32;27.90;;;14.32;;
32082;SDS011;18597;48.328;7.932;2023-03-01T04:29:59;19.83;;;13.60;;
32082;SDS011;18597;48.328;7.932;2023-03-01T04:32:25;19.67;;;13.77;;
32082;SDS011;18597;48.328;7.932;2023-03-01T04:34:51;23.40;;;15.73;;
32082;SDS011;18597;48.328;7.932;2023-03-01T04:37:17;30.20;;;17.07;;
32082;SDS011;18597;48.328;7.932;2023-03-01T04:39:43;36.30;;;18.17;;
32082;SDS011;18597;48.328;7.932;2023-03-01T04:42:12;27.60;;;17.03;;
32082;SDS011;18597;48.328;7.932;2023-03-01T04:44:41;32.30;;;18.77;;
32082;SDS011;18597;48.328;7.932;2023-03-01T04:47:08;42.97;;;20.33;;
32082;SDS011;18597;48.328;7.932;2023-03-01T04:49:34;38.80;;;20.33;;
32082;SDS011;18597;48.328;7.932;2023-03-01T04:52:00;33.30;;;17.87;;
32082;SDS011;18597;48.328;7.932;2023-03-01T04:54:28;30.50;;;18.07;;
32082;SDS011;18597;48.328;7.932;2023-03-01T04:56:57;26.17;;;16.33;;
32082;SDS011;18597;48.328;7.932;2023-03-01T04:59:23;27.10;;;14.30;;
32082;SDS011;18597;48.328;7.932;2023-03-01T05:01:50;33.72;;;19.25;;
32082;SDS011;18597;48.328;7.932;2023-03-01T05:04:20;40.40;;;20.20;;
32082;SDS011;18597;48.328;7.932;2023-03-01T05:06:47;38.60;;;19.83;;
32082;SDS011;18597;48.328;7.932;2023-03-01T05:09:13;32.57;;;19.27;;
32082;SDS011;18597;48.328;7.932;2023-03-01T05:11:39;30.83;;;18.23;;
32082;SDS011;18597;48.328;7.932;2023-03-01T05:14:05;47.03;;;22.13;;
32082;SDS011;18597;48.328;7.932;2023-03-01T05:16:32;50.90;;;20.90;;
32082;SDS011;18597;48.328;7.932;2023-03-01T05:18:59;40.70;;;20.60;;
32082;SDS011;18597;48.328;7.932;2023-03-01T05:21:25;45.57;;;23.20;;
32082;SDS011;18597;48.328;7.932;2023-03-01T05:23:51;63.40;;;31.03;;
32082;SDS011;18597;48.328;7.932;2023-03-01T05:26:18;56.43;;;27.73;;
32082;SDS011;18597;48.328;7.932;2023-03-01T05:28:46;57.20;;;25.77;;
32082;SDS011;18597;48.328;7.932;2023-03-01T05:31:13;64.00;;;28.70;;
32082;SDS011;18597;48.328;7.932;2023-03-01T05:33:40;83.07;;;36.83;;
32082;SDS011;18597;48.328;7.932;2023-03-01T05:36:06;83.30;;;36.40;;
32082;SDS011;18597;48.328;7.932;2023-03-01T05:38:34;60.20;;;26.83;;
32082;SDS011;18597;48.328;7.932;2023-03-01T05:41:01;49.03;;;24.00;;
32082;SDS011;18597;48.328;7.932;2023-03-01T05:43:29;48.77;;;27.47;;
32082;SDS011;18597;48.328;7.932;2023-03-01T05:46:00;38.17;;;21.40;;
32082;SDS011;18597;48.328;7.932;2023-03-01T05:48:26;26.47;;;16.73;;
32082;SDS011;18597;48.328;7.932;2023-03-01T05:50:52;34.53;;;17.50;;
32082;SDS011;18597;48.328;7.932;2023-03-01T05:53:19;26.17;;;15.33;;
32082;SDS011;18597;48.328;7.932;2023-03-01T05:55:47;45.83;;;18.00;;
32082;SDS011;18597;48.328;7.932;2023-03-01T05:58:14;24.90;;;15.40;;
32082;SDS011;18597;48.328;7.932;2023-03-01T06:00:43;27.93;;;17.40;;
32082;SDS011;18597;48.328;7.932;2023-03-01T06:03:11;31.33;;;15.23;;
32082;SDS011;18597;48.328;7.932;2023-03-01T06:05:39;22.53;;;14.03;;
32082;SDS011;18597;48.328;7.932;2023-03-01T06:08:06;25.60;;;13.70;;
32082;SDS011;18597;48.328;7.932;2023-03-01T06:10:32;18.93;;;14.20;;
32082;SDS011;18597;48.328;7.932;2023-03-01T06:12:58;23.47;;;15.13;;
32082;SDS011;18597;48.328;7.932;2023-03-01T06:15:24;24.30;;;15.80;;
32082;SDS011;18597;48.328;7.932;2023-03-01T06:17:51;24.20;;;14.97;;
32082;SDS011;18597;48.328;7.932;2023-03-01T06:20:21;20.13;;;14.33;;
32082;SDS011;18597;48.328;7.932;2023-03-01T06:22:50;22.93;;;15.10;;
32082;SDS011;18597;48.328;7.932;2023-03-01T06:25:17;21.00;;;14.93;;
32082;SDS011;18597;48.328;7.932;2023-03-01T06:27:46;24.13;;;15.57;;
32082;SDS011;18597;48.328;7.932;2023-03-01T06:30:14;19.00;;;14.23;;
32082;SDS011;18597;48.328;7.932;2023-03-01T06:32:42;25.67;;;14.93;;
32082;SDS011;18597;48.328;7.932;2023-03-01T06:35:10;21.27;;;15.60;;
32082;SDS011;18597;48.328;7.932;2023-03-01T06:37:37;23.50;;;15.87;;
32082;SDS011;18597;48.328;7.932;2023-03-01T06:40:03;23.93;;;16.37;;
32082;SDS011;18597;48.328;7.932;2023-03-01T06:42:35;47.10;;;25.00;;
32082;SDS011;18597;48.328;7.932;2023-03-01T06:45:01;36.33;;;21.43;;
32082;SDS011;18597;48.328;7.932;2023-03-01T06:47:28;32.80;;;17.93;;
32082;SDS011;18597;48.328;7.932;2023-03-01T06:49:54;33.20;;;17.23;;
32082;SDS011;18597;48.328;7.932;2023-03-01T06:52:19;22.60;;;15.40;;
32082;SDS011;18597;48.328;7.932;2023-03-01T06:54:45;31.50;;;19.23;;
32082;SDS011;18597;48.328;7.932;2023-03-01T06:57:11;30.20;;;17.83;;
32082;SDS011;18597;48.328;7.932;2023-03-01T06:59:37;28.27;;;18.27;;
32082;SDS011;18597;48.328;7.932;2023-03-01T07:02:03;30.67;;;17.77;;
32082;SDS011;18597;48.328;7.932;2023-03-01T07:04:29;30.00;;;18.17;;
32082;SDS011;18597;48.328;7.932;2023-03-01T07:06:55;25.50;;;17.67;;
32082;SDS011;18597;48.328;7.932;2023-03-01T07:09:22;29.53;;;18.10;;
32082;SDS011;18597;48.328;7.932;2023-03-01T07:11:49;22.43;;;15.60;;
32082;SDS011;18597;48.328;7.932;2023-03-01T07:14:15;20.10;;;14.97;;
32082;SDS011;18597;48.328;7.932;2023-03-01T07:16:41;27.20;;;16.53;;
32082;SDS011;18597;48.328;7.932;2023-03-01T07:19:07;38.03;;;19.93;;
32082;SDS011;18597;48.328;7.932;2023-03-01T07:21:32;34.50;;;18.70;;
32082;SDS011;18597;48.328;7.932;2023-03-01T07:23:58;34.70;;;19.87;;
32082;SDS011;18597;48.328;7.932;2023-03-01T07:26:24;26.70;;;17.17;;
32082;SDS011;18597;48.328;7.932;2023-03-01T07:28:50;23.27;;;14.83;;
32082;SDS011;18597;48.328;7.932;2023-03-01T07:31:16;24.80;;;16.23;;
32082;SDS011;18597;48.328;7.932;2023-03-01T07:33:41;24.73;;;15.50;;
32082;SDS011;18597;48.328;7.932;2023-03-01T07:36:07;29.23;;;18.13;;
32082;SDS011;18597;48.328;7.932;2023-03-01T07:38:34;31.43;;;19.23;;
32082;SDS011;18597;48.328;7.932;2023-03-01T07:41:01;26.00;;;17.27;;
32082;SDS011;18597;48.328;7.932;2023-03-01T07:43:29;33.17;;;19.33;;
32082;SDS011;18597;48.328;7.932;2023-03-01T07:45:58;34.00;;;18.40;;
32082;SDS011;18597;48.328;7.932;2023-03-01T07:48:25;26.83;;;19.00;;
32082;SDS011;18597;48.328;7.932;2023-03-01T07:50:51;30.20;;;19.83;;
32082;SDS011;18597;48.328;7.932;2023-03-01T07:53:17;29.50;;;19.50;;
32082;SDS011;18597;48.328;7.932;2023-03-01T07:55:43;32.53;;;17.77;;
32082;SDS011;18597;48.328;7.932;2023-03-01T07:58:09;31.80;;;17.90;;
32082;SDS011;18597;48.328;7.932;2023-03-01T08:00:35;31.93;;;18.53;;
32082;SDS011;18597;48.328;7.932;2023-03-01T08:03:01;27.27;;;17.70;;
32082;SDS011;18597;48.328;7.932;2023-03-01T08:05:28;38.97;;;19.60;;
32082;SDS011;18597;48.328;7.932;2023-03-01T08:07:54;31.93;;;20.03;;
32082;SDS011;18597;48.328;7.932;2023-03-01T08:10:20;31.17;;;19.30;;
32082;SDS011;18597;48.328;7.932;2023-03-01T08:12:46;26.93;;;16.77;;
32082;SDS011;18597;48.328;7.932;2023-03-01T08:15:11;36.60;;;17.00;;
32082;SDS011;18597;48.328;7.932;2023-03-01T08:17:38;29.83;;;18.17;;
32082;SDS011;18597;48.328;7.932;2023-03-01T08:20:04;30.17;;;19.83;;
32082;SDS011;18597;48.328;7.932;2023-03-01T08:22:31;27.30;;;17.77;;
32082;SDS011;18597;48.328;7.932;2023-03-01T08:24:57;28.80;;;16.70;;
32082;SDS011;18597;48.328;7.932;2023-03-01T08:27:23;26.43;;;17.80;;
32082;SDS011;18597;48.328;7.932;2023-03-01T08:29:49;27.30;;;18.23;;
32082;SDS011;18597;48.328;7.932;2023-03-01T08:32:15;30.37;;;17.30;;
32082;SDS011;18597;48.328;7.932;2023-03-01T08:34:40;33.10;;;20.23;;
32082;SDS011;18597;48.328;7.932;2023-03-01T08:37:06;30.90;;;18.80;;
32082;SDS011;18597;48.328;7.932;2023-03-01T08:39:32;37.43;;;19.30;;
32082;SDS011;18597;48.328;7.932;2023-03-01T08:41:58;23.33;;;17.53;;
32082;SDS011;18597;48.328;7.932;2023-03-01T08:44:24;31.10;;;19.30;;
32082;SDS011;18597;48.328;7.932;2023-03-01T08:46:50;31.57;;;20.43;;
32082;SDS011;18597;48.328;7.932;2023-03-01T08:49:18;32.20;;;19.70;;
32082;SDS011;18597;48.328;7.932;2023-03-01T08:51:45;33.40;;;19.10;;
32082;SDS011;18597;48.328;7.932;2023-03-01T08:54:13;31.30;;;19.37;;
32082;SDS011;18597;48.328;7.932;2023-03-01T08:56:43;24.10;;;17.00;;
32082;SDS011;18597;48.328;7.932;2023-03-01T08:59:11;31.90;;;20.80;;
32082;SDS011;18597;48.328;7.932;2023-03-01T09:01:37;29.77;;;20.73;;
32082;SDS011;18597;48.328;7.932;2023-03-01T09:04:05;32.30;;;21.63;;
32082;SDS011;18597;48.328;7.932;2023-03-01T09:06:32;30.73;;;19.13;;
32082;SDS011;18597;48.328;7.932;2023-03-01T09:08:59;32.73;;;20.30;;
32082;SDS011;18597;48.328;7.932;2023-03-01T09:11:26;26.60;;;18.47;;
32082;SDS011;18597;48.328;7.932;2023-03-01T09:13:52;30.30;;;18.77;;
32082;SDS011;18597;48.328;7.932;2023-03-01T09:16:19;25.40;;;17.50;;
32082;SDS011;18597;48.328;7.932;2023-03-01T09:18:49;27.17;;;17.97;;
32082;SDS011;18597;48.328;7.932;2023-03-01T09:21:16;30.23;;;18.63;;
32082;SDS011;18597;48.328;7.932;2023-03-01T09:23:46;26.97;;;17.47;;
32082;SDS011;18597;48.328;7.932;2023-03-01T09:26:14;33.07;;;20.27;;
32082;SDS011;18597;48.328;7.932;2023-03-01T09:28:47;40.43;;;24.40;;
32082;SDS011;18597;48.328;7.932;2023-03-01T09:31:16;32.57;;;21.30;;
32082;SDS011;18597;48.328;7.932;2023-03-01T09:33:46;33.03;;;21.20;;
32082;SDS011;18597;48.328;7.932;2023-03-01T09:36:15;37.10;;;21.40;;
32082;SDS011;18597;48.328;7.932;2023-03-01T09:38:43;31.20;;;19.77;;
32082;SDS011;18597;48.328;7.932;2023-03-01T09:43:55;24.93;;;16.83;;
32082;SDS011;18597;48.328;7.932;2023-03-01T09:46:28;25.40;;;17.47;;
32082;SDS011;18597;48.328;7.932;2023-03-01T09:49:03;26.70;;;17.13;;
32082;SDS011;18597;48.328;7.932;2023-03-01T09:51:36;24.10;;;16.67;;
32082;SDS011;18597;48.328;7.932;2023-03-01T09:54:02;29.43;;;18.37;;
32082;SDS011;18597;48.328;7.932;2023-03-01T09:56:33;23.93;;;19.30;;
32082;SDS011;18597;48.328;7.932;2023-03-01T09:59:14;26.77;;;18.73;;
32082;SDS011;18597;48.328;7.932;2023-03-01T10:02:23;34.00;;;20.40;;
32082;SDS011;18597;48.328;7.932;2023-03-01T10:05:05;31.10;;;21.07;;
32082;SDS011;18597;48.328;7.932;2023-03-01T10:10:59;30.83;;;18.97;;
32082;SDS011;18597;48.328;7.932;2023-03-01T10:13:28;28.33;;;19.40;;
32082;SDS011;18597;48.328;7.932;2023-03-01T10:16:21;27.20;;;17.50;;
32082;SDS011;18597;48.328;7.932;2023-03-01T10:19:05;30.50;;;18.83;;
32082;SDS011;18597;48.328;7.932;2023-03-01T10:21:41;31.43;;;20.27;;
32082;SDS011;18597;48.328;7.932;2023-03-01T10:24:12;31.30;;;19.67;;
32082;SDS011;18597;48.328;7.932;2023-03-01T10:26:57;26.90;;;17.97;;
32082;SDS011;18597;48.328;7.932;2023-03-01T10:29:30;28.30;;;19.17;;
32082;SDS011;18597;48.328;7.932;2023-03-01T10:32:08;27.03;;;17.80;;
32082;SDS011;18597;48.328;7.932;2023-03-01T10:34:36;21.10;;;14.70;;
32082;SDS011;18597;48.328;7.932;2023-03-01T10:37:18;21.73;;;15.53;;
32082;SDS011;18597;48.328;7.932;2023-03-01T10:39:57;26.27;;;16.20;;
32082;SDS011;18597;48.328;7.932;2023-03-01T10:42:33;26.63;;;15.90;;
32082;SDS011;18597;48.328;7.932;2023-03-01T10:48:11;20.17;;;14.70;;
32082;SDS011;18597;48.328;7.932;2023-03-01T10:50:42;20.00;;;15.07;;
32082;SDS011;18597;48.328;7.932;2023-03-01T10:56:06;25.17;;;16.93;;
32082;SDS011;18597;48.328;7.932;2023-03-01T10:58:36;28.40;;;18.67;;
32082;SDS011;18597;48.328;7.932;2023-03-01T11:01:05;31.10;;;21.10;;
32082;SDS011;18597;48.328;7.932;2023-03-01T11:04:13;28.10;;;18.30;;
32082;SDS011;18597;48.328;7.932;2023-03-01T11:06:39;28.23;;;18.73;;
32082;SDS011;18597;48.328;7.932;2023-03-01T11:09:15;23.47;;;15.47;;
32082;SDS011;18597;48.328;7.932;2023-03-01T11:11:53;31.63;;;18.73;;
32082;SDS011;18597;48.328;7.932;2023-03-01T11:14:25;27.67;;;19.03;;
32082;SDS011;18597;48.328;7.932;2023-03-01T11:16:59;40.73;;;18.30;;
32082;SDS011;18597;48.328;7.932;2023-03-01T11:19:29;26.67;;;18.97;;
32082;SDS011;18597;48.328;7.932;2023-03-01T11:21:59;31.70;;;19.60;;
32082;SDS011;18597;48.328;7.932;2023-03-01T11:24:40;37.87;;;22.70;;
32082;SDS011;18597;48.328;7.932;2023-03-01T11:27:25;27.87;;;20.03;;
32082;SDS011;18597;48.328;7.932;2023-03-01T11:29:56;31.83;;;18.80;;
32082;SDS011;18597;48.328;7.932;2023-03-01T11:32:35;38.03;;;20.57;;
32082;SDS011;18597;48.328;7.932;2023-03-01T11:35:14;36.20;;;21.47;;
32082;SDS011;18597;48.328;7.932;2023-03-01T11:38:13;33.90;;;18.97;;
32082;SDS011;18597;48.328;7.932;2023-03-01T11:40:58;28.53;;;18.93;;
32082;SDS011;18597;48.328;7.932;2023-03-01T11:49:48;25.13;;;17.70;;
32082;SDS011;18597;48.328;7.932;2023-03-01T11:52:46;29.17;;;19.10;;
32082;SDS011;18597;48.328;7.932;2023-03-01T12:05:15;31.27;;;19.50;;
32082;SDS011;18597;48.328;7.932;2023-03-01T12:08:37;28.10;;;19.70;;
32082;SDS011;18597;48.328;7.932;2023-03-01T12:14:17;30.53;;;20.10;;
32082;SDS011;18597;48.328;7.932;2023-03-01T12:20:40;31.10;;;20.10;;
32082;SDS011;18597;48.328;7.932;2023-03-01T12:26:44;35.37;;;18.80;;
32082;SDS011;18597;48.328;7.932;2023-03-01T12:32:47;28.33;;;18.73;;
32082;SDS011;18597;48.328;7.932;2023-03-01T12:39:06;30.23;;;18.97;;
32082;SDS011;18597;48.328;7.932;2023-03-01T12:42:22;29.93;;;20.33;;
32082;SDS011;18597;48.328;7.932;2023-03-01T12:51:50;29.53;;;19.73;;
32082;SDS011;18597;48.328;7.932;2023-03-01T12:54:38;26.93;;;19.67;;
32082;SDS011;18597;48.328;7.932;2023-03-01T12:57:09;34.17;;;22.07;;
32082;SDS011;18597;48.328;7.932;2023-03-01T13:00:06;30.70;;;19.03;;
32082;SDS011;18597;48.328;7.932;2023-03-01T13:03:15;36.43;;;22.10;;
32082;SDS011;18597;48.328;7.932;2023-03-01T13:06:07;35.70;;;21.93;;
32082;SDS011;18597;48.328;7.932;2023-03-01T13:09:05;34.13;;;22.60;;
32082;SDS011;18597;48.328;7.932;2023-03-01T13:11:43;36.60;;;21.77;;
32082;SDS011;18597;48.328;7.932;2023-03-01T13:17:00;29.60;;;21.67;;
32082;SDS011;18597;48.328;7.932;2023-03-01T13:19:26;33.87;;;22.43;;
32082;SDS011;18597;48.328;7.932;2023-03-01T13:21:55;35.80;;;21.40;;
32082;SDS011;18597;48.328;7.932;2023-03-01T13:25:00;29.50;;;19.57;;
32082;SDS011;18597;48.328;7.932;2023-03-01T13:29:44;32.10;;;20.80;;
32082;SDS011;18597;48.328;7.932;2023-03-01T13:32:30;30.67;;;20.83;;
32082;SDS011;18597;48.328;7.932;2023-03-01T13:35:01;31.50;;;22.20;;
32082;SDS011;18597;48.328;7.932;2023-03-01T13:37:53;28.97;;;19.53;;
32082;SDS011;18597;48.328;7.932;2023-03-01T13:41:47;30.43;;;22.37;;
32082;SDS011;18597;48.328;7.932;2023-03-01T13:44:33;33.10;;;20.77;;
32082;SDS011;18597;48.328;7.932;2023-03-01T13:47:07;31.50;;;20.13;;
32082;SDS011;18597;48.328;7.932;2023-03-01T13:49:58;26.73;;;18.67;;
32082;SDS011;18597;48.328;7.932;2023-03-01T13:52:38;33.23;;;20.30;;
32082;SDS011;18597;48.328;7.932;2023-03-01T13:55:24;33.90;;;21.27;;
32082;SDS011;18597;48.328;7.932;2023-03-01T13:58:04;31.97;;;20.40;;
32082;SDS011;18597;48.328;7.932;2023-03-01T14:00:54;35.23;;;22.40;;
32082;SDS011;18597;48.328;7.932;2023-03-01T14:03:30;34.50;;;21.10;;
32082;SDS011;18597;48.328;7.932;2023-03-01T14:06:08;30.67;;;21.23;;
32082;SDS011;18597;48.328;7.932;2023-03-01T14:08:40;37.27;;;20.73;;
32082;SDS011;18597;48.328;7.932;2023-03-01T14:20:22;31.00;;;20.17;;
32082;SDS011;18597;48.328;7.932;2023-03-01T14:22:54;34.87;;;20.20;;
32082;SDS011;18597;48.328;7.932;2023-03-01T14:25:27;36.77;;;24.20;;
32082;SDS011;18597;48.328;7.932;2023-03-01T14:30:35;31.20;;;20.73;;
32082;SDS011;18597;48.328;7.932;2023-03-01T14:33:16;30.87;;;20.40;;
32082;SDS011;18597;48.328;7.932;2023-03-01T14:36:06;33.90;;;21.90;;
32082;SDS011;18597;48.328;7.932;2023-03-01T14:38:36;31.40;;;20.80;;
32082;SDS011;18597;48.328;7.932;2023-03-01T14:41:14;29.03;;;19.73;;
32082;SDS011;18597;48.328;7.932;2023-03-01T14:43:47;33.13;;;20.30;;
32082;SDS011;18597;48.328;7.932;2023-03-01T14:46:30;36.07;;;22.97;;
32082;SDS011;18597;48.328;7.932;2023-03-01T14:49:09;34.50;;;21.67;;
32082;SDS011;18597;48.328;7.932;2023-03-01T14:51:52;34.37;;;20.53;;
32082;SDS011;18597;48.328;7.932;2023-03-01T14:54:43;30.87;;;20.77;;
32082;SDS011;18597;48.328;7.932;2023-03-01T14:57:21;32.87;;;22.60;;
32082;SDS011;18597;48.328;7.932;2023-03-01T14:59:51;37.40;;;21.60;;
32082;SDS011;18597;48.328;7.932;2023-03-01T15:02:25;36.07;;;22.87;;
32082;SDS011;18597;48.328;7.932;2023-03-01T15:04:55;34.60;;;23.77;;
32082;SDS011;18597;48.328;7.932;2023-03-01T15:07:26;34.47;;;20.97;;
32082;SDS011;18597;48.328;7.932;2023-03-01T15:09:57;30.13;;;20.97;;
32082;SDS011;18597;48.328;7.932;2023-03-01T15:12:32;32.33;;;20.80;;
32082;SDS011;18597;48.328;7.932;2023-03-01T15:15:18;28.83;;;19.30;;
32082;SDS011;18597;48.328;7.932;2023-03-01T15:17:56;32.70;;;20.33;;
32082;SDS011;18597;48.328;7.932;2023-03-01T15:20:26;36.33;;;21.00;;
32082;SDS011;18597;48.328;7.932;2023-03-01T15:22:55;33.33;;;20.20;;
32082;SDS011;18597;48.328;7.932;2023-03-01T15:25:24;30.50;;;20.10;;
32082;SDS011;18597;48.328;7.932;2023-03-01T15:27:53;27.80;;;18.40;;
32082;SDS011;18597;48.328;7.932;2023-03-01T15:30:25;31.83;;;21.03;;
32082;SDS011;18597;48.328;7.932;2023-03-01T15:33:32;28.40;;;20.57;;
32082;SDS011;18597;48.328;7.932;2023-03-01T15:35:55;31.20;;;19.70;;
32082;SDS011;18597;48.328;7.932;2023-03-01T15:38:25;33.57;;;20.80;;
32082;SDS011;18597;48.328;7.932;2023-03-01T15:41:00;33.03;;;21.50;;
32082;SDS011;18597;48.328;7.932;2023-03-01T15:43:44;31.63;;;21.00;;
32082;SDS011;18597;48.328;7.932;2023-03-01T15:46:15;34.17;;;20.63;;
32082;SDS011;18597;48.328;7.932;2023-03-01T15:48:50;30.50;;;19.50;;
32082;SDS011;18597;48.328;7.932;2023-03-01T15:51:27;25.73;;;18.50;;
32082;SDS011;18597;48.328;7.932;2023-03-01T15:54:02;33.00;;;20.70;;
32082;SDS011;18597;48.328;7.932;2023-03-01T15:56:43;33.27;;;21.27;;
32082;SDS011;18597;48.328;7.932;2023-03-01T15:59:09;43.60;;;22.17;;
32082;SDS011;18597;48.328;7.932;2023-03-01T16:01:39;43.83;;;21.80;;
32082;SDS011;18597;48.328;7.932;2023-03-01T16:04:06;36.77;;;21.60;;